MSC Vanessa — HOWD — position and weather

sailwx.info

Track history (hours):
 
Tides and Currents Weather Stations Pressure Air Temp Water Temp Dewpoint Dewpoint Depression Visibility Wind Speed Wind Dir Waves Ship Positions

MSC Vanessa

Last reported at 2015-Feb-28 16:18 UTC. Time now 2015-Mar-04 12:51 UTC.
Position N 42°16' E 029°17'.

Length 300 m; draft 9.1 m.

Type: Ship (hazmat cat A). MMSI: 356946000.

Date/timePositionNaut miles runAvg speedWind from/ knotsBaromVisibWave heightAir tempDewpointWater temp
2015-Feb-28 16:18N 42°16' E 029°17'5618.2
2015-Feb-28 13:13N 41°20' E 029°16'262 7.5
2015-Feb-27 02:21N 38°28' E 024°58'3517.7
2015-Feb-27 00:20N 37°57' E 024°37'1816.4
2015-Feb-26 23:16N 37°46' E 024°19'1216.9
2015-Feb-26 22:32N 37°36' E 024°10'1515.6
2015-Feb-26 21:34N 37°35' E 023°51'1414.3
2015-Feb-26 20:34N 37°45' E 023°39'1212.2
2015-Feb-26 19:34N 37°57' E 023°36'0 0.2
2015-Feb-26 18:31N 37°57' E 023°36'0 0.0
2015-Feb-26 17:31N 37°57' E 023°36'0 0.0
2015-Feb-26 16:31N 37°57' E 023°36'0 0.0
2015-Feb-26 15:31N 37°57' E 023°36'0 0.0
2015-Feb-26 14:28N 37°57' E 023°36'0 0.0
2015-Feb-26 13:31N 37°57' E 023°36'0 0.0
2015-Feb-26 12:31N 37°57' E 023°36'0 0.0
2015-Feb-26 11:31N 37°57' E 023°36'0 0.0
2015-Feb-26 10:25N 37°57' E 023°36'0 0.0
2015-Feb-26 09:31N 37°57' E 023°36'0 0.0
2015-Feb-26 08:31N 37°57' E 023°36'0 0.0
2015-Feb-26 07:28N 37°57' E 023°36'0 0.0
2015-Feb-26 06:31N 37°57' E 023°36'1 0.8
2015-Feb-26 05:33N 37°57' E 023°36'3 3.4
2015-Feb-26 04:33N 37°53' E 023°36'4 4.3
2015-Feb-26 03:33N 37°50' E 023°40'7 6.6
2015-Feb-26 02:33N 37°44' E 023°43'1010.1
2015-Feb-26 01:33N 37°35' E 023°49'  
2015-Feb-22 13:11N 42°02' E 010°25'6415.9
2015-Feb-22 09:09N 42°55' E 009°37'1016.3
2015-Feb-22 08:33N 43°05' E 009°37'1717.2
2015-Feb-22 07:33N 43°22' E 009°42'1717.1
2015-Feb-22 06:33N 43°39' E 009°47'1717.2
2015-Feb-22 05:33N 43°55' E 009°52'1111.1
2015-Feb-22 04:33N 44°06' E 009°51'0 0.0
2015-Feb-22 03:33N 44°06' E 009°51'0 0.0
2015-Feb-22 02:33N 44°06' E 009°51'0 0.0
2015-Feb-22 01:33N 44°06' E 009°51'0 0.0
2015-Feb-22 00:30N 44°06' E 009°51'0 0.0
2015-Feb-21 23:33N 44°06' E 009°51'0 0.0
2015-Feb-21 22:33N 44°06' E 009°51'0 0.0
2015-Feb-21 21:33N 44°06' E 009°51'0 0.0
2015-Feb-21 20:33N 44°06' E 009°51'0 0.0
2015-Feb-21 19:30N 44°06' E 009°51'0 0.0
2015-Feb-21 18:33N 44°06' E 009°51'0 0.0
2015-Feb-21 17:33N 44°06' E 009°51'0 0.0
2015-Feb-21 16:33N 44°06' E 009°51'0 0.0
2015-Feb-21 15:30N 44°06' E 009°51'0 0.0
2015-Feb-21 14:33N 44°06' E 009°51'0 0.0
2015-Feb-21 13:33N 44°06' E 009°51'0 0.0
2015-Feb-21 12:33N 44°06' E 009°51'0 0.0
2015-Feb-21 11:33N 44°06' E 009°51'0 0.0
2015-Feb-21 10:33N 44°06' E 009°51'0 0.0
2015-Feb-21 09:33N 44°06' E 009°51'0 0.0
2015-Feb-21 08:33N 44°06' E 009°51'0 0.0
2015-Feb-21 07:33N 44°06' E 009°51'0 0.0
2015-Feb-21 06:33N 44°06' E 009°51'4 3.5
2015-Feb-21 05:33N 44°03' E 009°52'7 7.2
2015-Feb-21 04:33N 43°56' E 009°56'1716.6
2015-Feb-21 03:33N 43°44' E 009°39'1717.3
2015-Feb-21 02:33N 43°33' E 009°21'1817.7
2015-Feb-21 01:33N 43°21' E 009°03'23719.3
2015-Feb-20 13:17N 41°17' E 004°31'2816.4
2015-Feb-20 11:33N 41°02' E 003°59'2120.5
2015-Feb-20 10:33N 40°52' E 003°36'2222.0
2015-Feb-20 09:33N 40°41' E 003°11'2121.2
2015-Feb-20 08:33N 40°30' E 002°47'2121.3
2015-Feb-20 07:33N 40°19' E 002°22'2221.5
2015-Feb-20 06:33N 40°08' E 001°58'2121.4
2015-Feb-20 05:33N 39°58' E 001°34'2121.2
2015-Feb-20 04:33N 39°47' E 001°10'6020.0
2015-Feb-20 01:33N 39°26' W 000°03'1312.8
2015-Feb-20 00:33N 39°26' W 000°20'0 0.0
2015-Feb-19 23:31N 39°26' W 000°20'0 0.0
2015-Feb-19 22:28N 39°26' W 000°20'0 0.0
2015-Feb-19 21:28N 39°26' W 000°20'0 0.0
2015-Feb-19 20:10N 39°26' W 000°20'0 0.0
2015-Feb-19 19:25N 39°26' W 000°20'0 0.0
2015-Feb-19 18:31N 39°26' W 000°20'0 0.0
2015-Feb-19 17:31N 39°26' W 000°20'0 0.0
2015-Feb-19 16:16N 39°26' W 000°20'0 0.0
2015-Feb-19 14:04N 39°26' W 000°20'0 0.0
2015-Feb-19 13:31N 39°26' W 000°20'0 0.0
2015-Feb-19 12:31N 39°26' W 000°20'0 0.0
2015-Feb-19 11:28N 39°26' W 000°20'0 0.0
2015-Feb-19 10:31N 39°26' W 000°20'0 0.0
2015-Feb-19 09:31N 39°26' W 000°20'0 0.0
2015-Feb-19 08:28N 39°26' W 000°20'0 0.0
2015-Feb-19 07:28N 39°26' W 000°20'0 0.0
2015-Feb-19 06:31N 39°26' W 000°20'0 0.0
2015-Feb-19 05:31N 39°26' W 000°20'0 0.0
2015-Feb-19 04:31N 39°26' W 000°20'0 0.0
2015-Feb-19 03:31N 39°26' W 000°20'0 0.0
2015-Feb-19 02:31N 39°26' W 000°20'0 0.0
2015-Feb-19 01:31N 39°26' W 000°20'0 0.0
2015-Feb-19 00:28N 39°26' W 000°20'0 0.0
2015-Feb-18 23:31N 39°26' W 000°20'0 0.1
2015-Feb-18 22:31N 39°26' W 000°20'0 0.0
2015-Feb-18 21:31N 39°26' W 000°20'2 1.7
2015-Feb-18 20:33N 39°26' W 000°18'5 4.5
2015-Feb-18 19:33N 39°25' W 000°12'1 0.9
2015-Feb-18 18:33N 39°25' W 000°11'6 5.0
2015-Feb-18 17:21N 39°19' W 000°08'  
Track history (hours):
 
Tides and Currents Weather Stations Pressure Air Temp Water Temp Dewpoint Dewpoint Depression Visibility Wind Speed Wind Dir Waves Ship Positions

MSC Vanessa

Last reported at 2015-Feb-28 16:18 UTC. Time now 2015-Mar-04 12:51 UTC.
Position N 42°16' E 029°17'.

Length 300 m; draft 9.1 m.

Type: Ship (hazmat cat A). MMSI: 356946000.

Date/timePositionNaut miles runAvg speedWind from/ knotsBaromVisibWave heightAir tempDewpointWater temp
2015-Feb-28 16:18N 42°16' E 029°17'5618.2
2015-Feb-28 13:13N 41°20' E 029°16'262 7.5
2015-Feb-27 02:21N 38°28' E 024°58'3517.7
2015-Feb-27 00:20N 37°57' E 024°37'1816.4
2015-Feb-26 23:16N 37°46' E 024°19'1216.9
2015-Feb-26 22:32N 37°36' E 024°10'1515.6
2015-Feb-26 21:34N 37°35' E 023°51'1414.3
2015-Feb-26 20:34N 37°45' E 023°39'1212.2
2015-Feb-26 19:34N 37°57' E 023°36'0 0.2
2015-Feb-26 18:31N 37°57' E 023°36'0 0.0
2015-Feb-26 17:31N 37°57' E 023°36'0 0.0
2015-Feb-26 16:31N 37°57' E 023°36'0 0.0
2015-Feb-26 15:31N 37°57' E 023°36'0 0.0
2015-Feb-26 14:28N 37°57' E 023°36'0 0.0
2015-Feb-26 13:31N 37°57' E 023°36'0 0.0
2015-Feb-26 12:31N 37°57' E 023°36'0 0.0
2015-Feb-26 11:31N 37°57' E 023°36'0 0.0
2015-Feb-26 10:25N 37°57' E 023°36'0 0.0
2015-Feb-26 09:31N 37°57' E 023°36'0 0.0
2015-Feb-26 08:31N 37°57' E 023°36'0 0.0
2015-Feb-26 07:28N 37°57' E 023°36'0 0.0
2015-Feb-26 06:31N 37°57' E 023°36'1 0.8
2015-Feb-26 05:33N 37°57' E 023°36'3 3.4
2015-Feb-26 04:33N 37°53' E 023°36'4 4.3
2015-Feb-26 03:33N 37°50' E 023°40'7 6.6
2015-Feb-26 02:33N 37°44' E 023°43'1010.1
2015-Feb-26 01:33N 37°35' E 023°49'  
2015-Feb-22 13:11N 42°02' E 010°25'6415.9
2015-Feb-22 09:09N 42°55' E 009°37'1016.3
2015-Feb-22 08:33N 43°05' E 009°37'1717.2
2015-Feb-22 07:33N 43°22' E 009°42'1717.1
2015-Feb-22 06:33N 43°39' E 009°47'1717.2
2015-Feb-22 05:33N 43°55' E 009°52'1111.1
2015-Feb-22 04:33N 44°06' E 009°51'0 0.0
2015-Feb-22 03:33N 44°06' E 009°51'0 0.0
2015-Feb-22 02:33N 44°06' E 009°51'0 0.0
2015-Feb-22 01:33N 44°06' E 009°51'0 0.0
2015-Feb-22 00:30N 44°06' E 009°51'0 0.0
2015-Feb-21 23:33N 44°06' E 009°51'0 0.0
2015-Feb-21 22:33N 44°06' E 009°51'0 0.0
2015-Feb-21 21:33N 44°06' E 009°51'0 0.0
2015-Feb-21 20:33N 44°06' E 009°51'0 0.0
2015-Feb-21 19:30N 44°06' E 009°51'0 0.0
2015-Feb-21 18:33N 44°06' E 009°51'0 0.0
2015-Feb-21 17:33N 44°06' E 009°51'0 0.0
2015-Feb-21 16:33N 44°06' E 009°51'0 0.0
2015-Feb-21 15:30N 44°06' E 009°51'0 0.0
2015-Feb-21 14:33N 44°06' E 009°51'0 0.0
2015-Feb-21 13:33N 44°06' E 009°51'0 0.0
2015-Feb-21 12:33N 44°06' E 009°51'0 0.0
2015-Feb-21 11:33N 44°06' E 009°51'0 0.0
2015-Feb-21 10:33N 44°06' E 009°51'0 0.0
2015-Feb-21 09:33N 44°06' E 009°51'0 0.0
2015-Feb-21 08:33N 44°06' E 009°51'0 0.0
2015-Feb-21 07:33N 44°06' E 009°51'0 0.0
2015-Feb-21 06:33N 44°06' E 009°51'4 3.5
2015-Feb-21 05:33N 44°03' E 009°52'7 7.2
2015-Feb-21 04:33N 43°56' E 009°56'1716.6
2015-Feb-21 03:33N 43°44' E 009°39'1717.3
2015-Feb-21 02:33N 43°33' E 009°21'1817.7
2015-Feb-21 01:33N 43°21' E 009°03'23719.3
2015-Feb-20 13:17N 41°17' E 004°31'2816.4
2015-Feb-20 11:33N 41°02' E 003°59'2120.5
2015-Feb-20 10:33N 40°52' E 003°36'2222.0
2015-Feb-20 09:33N 40°41' E 003°11'2121.2
2015-Feb-20 08:33N 40°30' E 002°47'2121.3
2015-Feb-20 07:33N 40°19' E 002°22'2221.5
2015-Feb-20 06:33N 40°08' E 001°58'2121.4
2015-Feb-20 05:33N 39°58' E 001°34'2121.2
2015-Feb-20 04:33N 39°47' E 001°10'6020.0
2015-Feb-20 01:33N 39°26' W 000°03'1312.8
2015-Feb-20 00:33N 39°26' W 000°20'0 0.0
2015-Feb-19 23:31N 39°26' W 000°20'0 0.0
2015-Feb-19 22:28N 39°26' W 000°20'0 0.0
2015-Feb-19 21:28N 39°26' W 000°20'0 0.0
2015-Feb-19 20:10N 39°26' W 000°20'0 0.0
2015-Feb-19 19:25N 39°26' W 000°20'0 0.0
2015-Feb-19 18:31N 39°26' W 000°20'0 0.0
2015-Feb-19 17:31N 39°26' W 000°20'0 0.0
2015-Feb-19 16:16N 39°26' W 000°20'0 0.0
2015-Feb-19 14:04N 39°26' W 000°20'0 0.0
2015-Feb-19 13:31N 39°26' W 000°20'0 0.0
2015-Feb-19 12:31N 39°26' W 000°20'0 0.0
2015-Feb-19 11:28N 39°26' W 000°20'0 0.0
2015-Feb-19 10:31N 39°26' W 000°20'0 0.0
2015-Feb-19 09:31N 39°26' W 000°20'0 0.0
2015-Feb-19 08:28N 39°26' W 000°20'0 0.0
2015-Feb-19 07:28N 39°26' W 000°20'0 0.0
2015-Feb-19 06:31N 39°26' W 000°20'0 0.0
2015-Feb-19 05:31N 39°26' W 000°20'0 0.0
2015-Feb-19 04:31N 39°26' W 000°20'0 0.0
2015-Feb-19 03:31N 39°26' W 000°20'0 0.0
2015-Feb-19 02:31N 39°26' W 000°20'0 0.0
2015-Feb-19 01:31N 39°26' W 000°20'0 0.0
2015-Feb-19 00:28N 39°26' W 000°20'0 0.0
2015-Feb-18 23:31N 39°26' W 000°20'0 0.1
2015-Feb-18 22:31N 39°26' W 000°20'0 0.0
2015-Feb-18 21:31N 39°26' W 000°20'2 1.7
2015-Feb-18 20:33N 39°26' W 000°18'5 4.5
2015-Feb-18 19:33N 39°25' W 000°12'1 0.9
2015-Feb-18 18:33N 39°25' W 000°11'6 5.0
2015-Feb-18 17:21N 39°19' W 000°08'  

Dump ship's entire track history